createdAt,value
2018-08-22T00:01:20.251Z,94093.09
2018-08-22T00:03:47.810Z,94095.94
2018-08-22T00:06:15.350Z,94090.52
2018-08-22T00:08:44.125Z,94081.98
2018-08-22T00:11:12.382Z,94083.66
2018-08-22T00:13:40.701Z,94079.37
2018-08-22T00:16:08.243Z,94076.33
2018-08-22T00:18:35.781Z,94068.50
2018-08-22T00:21:03.576Z,94075.69
2018-08-22T00:23:31.102Z,94074.32
2018-08-22T00:25:58.602Z,94076.32
2018-08-22T00:28:26.234Z,94065.60
2018-08-22T00:30:53.750Z,94066.94
2018-08-22T00:33:21.282Z,94072.80
2018-08-22T00:35:48.872Z,94067.47
2018-08-22T00:38:16.546Z,94065.32
2018-08-22T00:40:44.107Z,94069.50
2018-08-22T00:43:12.085Z,94066.27
2018-08-22T00:45:39.979Z,94062.98
2018-08-22T00:48:07.590Z,94057.03
2018-08-22T00:50:35.093Z,94055.50
2018-08-22T00:53:02.894Z,94058.36
2018-08-22T00:55:30.450Z,94056.98
2018-08-22T00:57:57.990Z,94053.69
2018-08-22T01:00:25.737Z,94055.25
2018-08-22T01:02:53.266Z,94053.09
2018-08-22T01:05:20.804Z,94054.91
2018-08-22T01:07:48.361Z,94053.80
2018-08-22T01:10:15.883Z,94053.80
2018-08-22T01:12:43.390Z,94054.63
2018-08-22T01:15:10.894Z,94051.36
2018-08-22T01:17:38.425Z,94044.80
2018-08-22T01:20:06.182Z,94055.91
2018-08-22T01:22:34.079Z,94054.83
2018-08-22T01:25:01.610Z,94056.73
2018-08-22T01:27:29.127Z,94053.77
2018-08-22T01:29:56.999Z,94054.23
2018-08-22T01:32:24.493Z,94051.05
2018-08-22T01:34:52.254Z,94047.28
2018-08-22T01:37:19.796Z,94051.28
2018-08-22T01:39:47.890Z,94047.80
2018-08-22T01:42:15.678Z,94046.17
2018-08-22T01:44:43.427Z,94040.84
2018-08-22T01:47:10.961Z,94044.11
2018-08-22T01:49:38.470Z,94044.97
2018-08-22T01:52:06.003Z,94043.64
2018-08-22T01:54:33.575Z,94041.84
2018-08-22T01:57:01.402Z,94039.36
2018-08-22T01:59:28.914Z,94042.24
2018-08-22T02:01:56.417Z,94047.50
2018-08-22T02:04:23.977Z,94040.56
2018-08-22T02:06:51.535Z,94041.45
2018-08-22T02:09:19.030Z,94039.30
2018-08-22T02:11:46.581Z,94039.30
2018-08-22T02:14:14.090Z,94041.60
2018-08-22T02:16:41.614Z,94041.03
2018-08-22T02:19:09.868Z,94037.92
2018-08-22T02:21:37.913Z,94029.78
2018-08-22T02:24:05.419Z,94034.94
2018-08-22T02:26:33.505Z,94037.61
2018-08-22T02:29:01.134Z,94035.37
2018-08-22T02:31:28.657Z,94029.38
2018-08-22T02:33:56.195Z,94027.55
2018-08-22T02:36:23.738Z,94031.38
2018-08-22T02:38:51.242Z,94030.64
2018-08-22T02:41:18.815Z,94040.41
2018-08-22T02:43:46.350Z,94036.75
2018-08-22T02:46:13.928Z,94033.20
2018-08-22T02:48:47.074Z,94037.32
2018-08-22T02:51:14.606Z,94031.45
2018-08-22T02:53:42.179Z,94025.75
2018-08-22T02:56:09.750Z,94020.34
2018-08-22T02:58:37.578Z,94028.59
2018-08-22T03:01:05.221Z,94030.19
2018-08-22T03:03:32.853Z,94028.28
2018-08-22T03:06:01.451Z,94034.66
2018-08-22T03:08:28.982Z,94025.20
2018-08-22T03:10:56.517Z,94029.12
2018-08-22T03:13:24.061Z,94033.05
2018-08-22T03:15:51.570Z,94029.05
2018-08-22T03:18:19.146Z,94030.86
2018-08-22T03:20:46.715Z,94028.48
2018-08-22T03:23:14.250Z,94031.64
2018-08-22T03:25:41.806Z,94029.62
2018-08-22T03:28:09.500Z,94031.59
2018-08-22T03:30:37.027Z,94028.84
2018-08-22T03:33:04.633Z,94033.66
2018-08-22T03:35:32.378Z,94027.38
2018-08-22T03:37:59.889Z,94035.48
2018-08-22T03:40:27.410Z,94030.71
2018-08-22T03:42:54.923Z,94032.28
2018-08-22T03:45:22.650Z,94028.08
2018-08-22T03:47:50.194Z,94028.27
2018-08-22T03:50:17.713Z,94031.05
2018-08-22T03:52:45.235Z,94034.36
2018-08-22T03:55:12.763Z,94035.63
2018-08-22T03:57:40.646Z,94033.85
2018-08-22T04:00:08.491Z,94030.16
2018-08-22T04:02:36.022Z,94033.47
2018-08-22T04:05:03.823Z,94031.48
2018-08-22T04:07:31.363Z,94031.19
2018-08-22T04:09:58.877Z,94035.38
2018-08-22T04:12:26.446Z,94031.69
2018-08-22T04:14:54.010Z,94037.89
2018-08-22T04:17:26.430Z,94036.02
2018-08-22T04:19:53.944Z,94038.21
2018-08-22T04:22:21.458Z,94040.95
2018-08-22T04:24:48.998Z,94043.15
2018-08-22T04:27:16.531Z,94040.30
2018-08-22T04:29:44.066Z,94039.17
2018-08-22T04:32:11.591Z,94049.42
2018-08-22T04:34:39.116Z,94046.66
2018-08-22T04:37:06.668Z,94044.78
2018-08-22T04:39:34.189Z,94045.91
2018-08-22T04:42:01.727Z,94048.53
2018-08-22T04:44:29.259Z,94044.11
2018-08-22T04:46:56.767Z,94047.61
2018-08-22T04:49:24.339Z,94044.57
2018-08-22T04:51:51.850Z,94050.55
2018-08-22T04:54:19.391Z,94049.31
2018-08-22T04:56:47.226Z,94057.08
2018-08-22T04:59:14.739Z,94047.59
2018-08-22T05:01:42.487Z,94055.16
2018-08-22T05:04:10.038Z,94061.81
2018-08-22T05:06:37.562Z,94059.88
2018-08-22T05:09:05.879Z,94064.84
2018-08-22T05:11:33.418Z,94061.03
2018-08-22T05:14:00.928Z,94059.19
2018-08-22T05:16:28.439Z,94057.86
2018-08-22T05:18:55.972Z,94059.39
2018-08-22T05:21:23.499Z,94058.00
2018-08-22T05:23:51.063Z,94058.71
2018-08-22T05:26:18.659Z,94058.91
2018-08-22T05:28:46.275Z,94059.59
2018-08-22T05:31:13.843Z,94059.77
2018-08-22T05:33:41.389Z,94060.32
2018-08-22T05:36:08.890Z,94061.18
2018-08-22T05:38:36.437Z,94056.88
2018-08-22T05:41:04.009Z,94058.07
2018-08-22T05:43:31.566Z,94065.19
2018-08-22T05:45:59.101Z,94067.77
2018-08-22T05:48:26.632Z,94072.44
2018-08-22T05:50:54.486Z,94067.73
2018-08-22T05:53:22.002Z,94075.40
2018-08-22T05:55:49.870Z,94064.80
2018-08-22T05:58:17.886Z,94068.64
2018-08-22T06:00:45.462Z,94067.90
2018-08-22T06:03:13.324Z,94062.89
2018-08-22T06:05:40.815Z,94064.84
2018-08-22T06:08:08.326Z,94064.36
2018-08-22T06:10:35.878Z,94073.66
2018-08-22T06:13:03.423Z,94067.83
2018-08-22T06:15:30.993Z,94064.16
2018-08-22T06:17:58.595Z,94074.91
2018-08-22T06:20:26.510Z,94076.78
2018-08-22T06:22:54.058Z,94072.77
2018-08-22T06:25:21.590Z,94079.70
2018-08-22T06:27:49.119Z,94084.80
2018-08-22T06:30:16.715Z,94082.40
2018-08-22T06:32:44.276Z,94076.50
2018-08-22T06:35:12.082Z,94084.75
2018-08-22T06:37:39.650Z,94091.11
2018-08-22T06:40:07.238Z,94081.36
2018-08-22T06:42:34.876Z,94083.71
2018-08-22T06:45:02.449Z,94087.34
2018-08-22T06:47:29.998Z,94086.65
2018-08-22T06:49:57.519Z,94081.75
2018-08-22T06:52:25.154Z,94087.75
2018-08-22T06:54:52.710Z,94085.92
2018-08-22T06:57:20.300Z,94085.33
2018-08-22T06:59:48.152Z,94080.34
2018-08-22T07:02:15.715Z,94084.98
2018-08-22T07:04:43.250Z,94084.67
2018-08-22T07:07:11.087Z,94084.48
2018-08-22T07:09:38.627Z,94089.94
2018-08-22T07:12:06.187Z,94085.69
2018-08-22T07:14:33.697Z,94080.39
2018-08-22T07:17:01.327Z,94086.75
2018-08-22T07:19:29.170Z,94081.69
2018-08-22T07:21:56.694Z,94084.37
2018-08-22T07:24:24.220Z,94084.88
2018-08-22T07:26:51.799Z,94079.33
2018-08-22T07:29:19.635Z,94083.19
2018-08-22T07:31:47.175Z,94076.05
2018-08-22T07:34:14.733Z,94083.22
2018-08-22T07:36:42.278Z,94076.45
2018-08-22T07:39:11.857Z,94078.67
2018-08-22T07:41:39.713Z,94077.91
2018-08-22T07:44:07.782Z,94074.91
2018-08-22T07:46:35.335Z,94083.06
2018-08-22T07:49:02.893Z,94080.45
2018-08-22T07:51:30.439Z,94076.16
2018-08-22T07:53:57.985Z,94085.80
2018-08-22T07:56:25.662Z,94084.62
2018-08-22T07:58:58.778Z,94087.64
2018-08-22T08:01:26.314Z,94086.42
2018-08-22T08:03:53.842Z,94090.12
2018-08-22T08:06:21.406Z,94088.33
2018-08-22T08:08:49.648Z,94079.80
2018-08-22T08:11:17.235Z,94083.45
2018-08-22T08:13:44.764Z,94089.25
2018-08-22T08:16:12.317Z,94086.23
2018-08-22T08:18:39.898Z,94087.72
2018-08-22T08:21:07.505Z,94085.02
2018-08-22T08:23:35.031Z,94086.95
2018-08-22T08:26:02.738Z,94087.01
2018-08-22T08:28:31.266Z,94088.33
2018-08-22T08:30:58.826Z,94076.95
2018-08-22T08:33:26.461Z,94077.18
2018-08-22T08:35:54.024Z,94081.95
2018-08-22T08:38:21.637Z,94082.61
2018-08-22T08:40:49.183Z,94080.40
2018-08-22T08:43:16.754Z,94073.42
2018-08-22T08:45:44.311Z,94068.72
2018-08-22T08:48:11.838Z,94068.78
2018-08-22T08:50:39.431Z,94071.17
2018-08-22T08:53:06.986Z,94068.89
2018-08-22T08:55:34.948Z,94069.94
2018-08-22T08:58:02.664Z,94069.73
2018-08-22T09:00:30.178Z,94067.99
2018-08-22T09:02:58.062Z,94059.55
2018-08-22T09:05:25.612Z,94065.77
2018-08-22T09:07:53.122Z,94062.64
2018-08-22T09:10:20.901Z,94062.31
2018-08-22T09:12:48.413Z,94069.38
2018-08-22T09:15:15.931Z,94069.23
2018-08-22T09:17:43.492Z,94068.40
2018-08-22T09:20:11.026Z,94067.83
2018-08-22T09:22:39.388Z,94064.77
2018-08-22T09:25:08.786Z,94060.70
2018-08-22T09:27:36.310Z,94061.82
2018-08-22T09:30:03.870Z,94058.58
2018-08-22T09:32:31.467Z,94062.81
2018-08-22T09:34:59.357Z,94055.77
2018-08-22T09:37:26.903Z,94054.38
2018-08-22T09:39:54.471Z,94051.44
2018-08-22T09:42:21.986Z,94054.89
2018-08-22T09:44:49.576Z,94048.66
2018-08-22T09:47:17.160Z,94047.94
2018-08-22T09:49:44.682Z,94041.86
2018-08-22T09:52:12.254Z,94041.84
2018-08-22T09:54:50.118Z,94037.98
2018-08-22T09:57:17.684Z,94042.17
2018-08-22T09:59:45.450Z,94034.55
2018-08-22T10:02:13.015Z,94033.78
2018-08-22T10:04:40.537Z,94036.16
2018-08-22T10:07:08.148Z,94029.19
2018-08-22T10:09:35.661Z,94020.65
2018-08-22T10:12:03.316Z,94022.23
2018-08-22T10:14:30.843Z,94020.55
2018-08-22T10:16:58.419Z,94020.72
2018-08-22T10:19:27.211Z,94008.72
2018-08-22T10:21:54.739Z,94010.69
2018-08-22T10:24:22.286Z,94009.53
2018-08-22T10:26:49.855Z,94007.04
2018-08-22T10:29:17.412Z,94001.77
2018-08-22T10:31:45.004Z,93996.23
2018-08-22T10:34:12.513Z,93998.30
2018-08-22T10:36:40.173Z,93998.19
2018-08-22T10:39:08.276Z,93995.20
2018-08-22T10:41:35.796Z,93995.67
2018-08-22T10:44:03.338Z,93995.09
2018-08-22T10:46:30.842Z,93992.20
2018-08-22T10:48:58.390Z,93993.00
2018-08-22T10:51:25.980Z,93995.11
2018-08-22T10:53:53.564Z,93989.82
2018-08-22T10:56:21.051Z,93994.77
2018-08-22T10:58:48.890Z,93989.98
2018-08-22T11:01:16.535Z,93986.09
2018-08-22T11:03:44.064Z,93989.13
2018-08-22T11:06:11.601Z,93978.77
2018-08-22T11:08:39.122Z,93982.94
2018-08-22T11:11:06.695Z,93987.34
2018-08-22T11:13:34.617Z,93988.25
2018-08-22T11:16:02.288Z,93980.48
2018-08-22T11:18:29.805Z,93978.29
2018-08-22T11:21:03.192Z,93974.33
2018-08-22T11:23:36.482Z,93976.79
2018-08-22T11:26:10.336Z,93982.15
2018-08-22T11:28:44.403Z,93976.95
2018-08-22T11:31:17.568Z,93977.67
2018-08-22T11:33:50.867Z,93975.49
2018-08-22T11:36:17.878Z,93976.45
2018-08-22T11:38:45.411Z,93973.99
2018-08-22T11:41:12.960Z,93964.93
2018-08-22T11:43:40.673Z,93970.53
2018-08-22T11:46:08.213Z,93972.84
2018-08-22T11:48:35.749Z,93961.11
2018-08-22T11:51:03.282Z,93951.49
2018-08-22T11:53:30.863Z,93959.70
2018-08-22T11:55:58.452Z,93955.19
2018-08-22T11:58:25.981Z,93953.09
2018-08-22T12:00:53.558Z,93959.27
2018-08-22T12:03:21.191Z,93952.62
2018-08-22T12:05:49.024Z,93956.06
2018-08-22T12:08:16.569Z,93955.28
2018-08-22T12:10:44.067Z,93950.33
2018-08-22T12:13:11.631Z,93954.17
2018-08-22T12:15:39.183Z,93951.61
2018-08-22T12:18:06.734Z,93948.23
2018-08-22T12:20:34.271Z,93945.77
2018-08-22T12:23:01.839Z,93951.23
2018-08-22T12:25:29.374Z,93954.84
2018-08-22T12:27:56.956Z,93956.25
2018-08-22T12:30:24.514Z,93959.84
2018-08-22T12:32:52.039Z,93959.86
2018-08-22T12:35:19.645Z,93968.92
2018-08-22T12:37:47.298Z,93970.66
2018-08-22T12:40:14.766Z,93979.83
2018-08-22T12:42:42.330Z,93989.59
2018-08-22T12:45:09.870Z,94010.65
2018-08-22T12:47:37.467Z,93993.47
2018-08-22T12:50:05.033Z,93987.56
2018-08-22T12:52:32.573Z,93976.56
2018-08-22T12:55:00.114Z,93982.73
2018-08-22T12:57:27.623Z,93979.09
2018-08-22T12:59:55.160Z,93977.94
2018-08-22T13:02:22.702Z,93987.02
2018-08-22T13:04:50.258Z,93971.67
2018-08-22T13:07:17.777Z,93969.84
2018-08-22T13:09:45.283Z,93965.07
2018-08-22T13:12:12.829Z,93968.05
2018-08-22T13:14:40.358Z,93977.73
2018-08-22T13:17:07.987Z,93981.28
2018-08-22T13:19:35.507Z,93978.33
2018-08-22T13:22:03.075Z,93974.73
2018-08-22T13:24:30.640Z,93968.88
2018-08-22T13:26:58.146Z,93965.69
2018-08-22T13:29:25.941Z,93969.93
2018-08-22T13:31:53.455Z,93971.05
2018-08-22T13:34:21.057Z,93968.81
2018-08-22T13:36:48.641Z,93965.55
2018-08-22T13:39:16.201Z,93962.68
2018-08-22T13:41:43.755Z,93961.48
2018-08-22T13:44:11.483Z,93951.59
2018-08-22T13:46:39.335Z,93949.26
2018-08-22T13:49:06.902Z,93940.92
2018-08-22T13:51:34.435Z,93941.72
2018-08-22T13:54:02.003Z,93933.70
2018-08-22T13:56:29.810Z,93939.14
2018-08-22T13:58:57.302Z,93938.41
2018-08-22T14:01:24.923Z,93937.56
2018-08-22T14:03:52.444Z,93938.88
2018-08-22T14:06:20.019Z,93933.73
2018-08-22T14:08:47.542Z,93933.48
2018-08-22T14:11:15.072Z,93921.67
2018-08-22T14:13:42.942Z,93915.65
2018-08-22T14:16:10.565Z,93915.79
2018-08-22T14:18:38.050Z,93906.95
2018-08-22T14:21:05.630Z,93907.59
2018-08-22T14:23:33.187Z,93909.20
2018-08-22T14:26:00.752Z,93906.30
2018-08-22T14:28:28.291Z,93902.38
2018-08-22T14:30:55.835Z,93908.22
2018-08-22T14:33:23.377Z,93902.39
2018-08-22T14:35:50.924Z,93897.11
2018-08-22T14:38:18.455Z,93892.12
2018-08-22T14:40:46.018Z,93891.41
2018-08-22T14:43:13.550Z,93891.59
2018-08-22T14:45:41.106Z,93892.20
2018-08-22T14:48:08.668Z,93884.69
2018-08-22T14:50:36.225Z,93883.59
2018-08-22T14:53:03.826Z,93884.09
2018-08-22T14:55:31.425Z,93877.45
2018-08-22T14:57:58.930Z,93881.54
2018-08-22T15:00:26.620Z,93876.23
2018-08-22T15:02:54.368Z,93876.72
2018-08-22T15:05:21.751Z,93874.52
2018-08-22T15:07:49.312Z,93873.28
2018-08-22T15:10:17.830Z,93864.20
2018-08-22T15:12:45.843Z,93872.41
2018-08-22T15:15:13.391Z,93868.01
2018-08-22T15:17:40.998Z,93865.23
2018-08-22T15:20:08.583Z,93866.67
2018-08-22T15:22:36.202Z,93868.99
2018-08-22T15:25:04.070Z,93871.70
2018-08-22T15:27:31.724Z,93865.66
2018-08-22T15:29:59.294Z,93864.44
2018-08-22T15:32:26.810Z,93868.36
2018-08-22T15:34:55.475Z,93866.29
2018-08-22T15:37:23.859Z,93857.22
2018-08-22T15:39:51.413Z,93864.81
2018-08-22T15:42:19.042Z,93857.69
2018-08-22T15:44:46.748Z,93862.23
2018-08-22T15:47:14.314Z,93856.89
2018-08-22T15:49:42.134Z,93852.28
2018-08-22T15:52:09.702Z,93854.73
2018-08-22T15:54:37.234Z,93856.34
2018-08-22T15:57:04.902Z,93850.43
2018-08-22T15:59:32.466Z,93853.16
2018-08-22T16:02:00.022Z,93855.87
2018-08-22T16:04:27.558Z,93851.23
2018-08-22T16:07:03.618Z,93855.11
2018-08-22T16:09:32.179Z,93856.50
2018-08-22T16:11:59.994Z,93861.19
2018-08-22T16:14:28.014Z,93857.52
2018-08-22T16:16:55.709Z,93855.80
2018-08-22T16:19:23.320Z,93853.21
2018-08-22T16:21:50.862Z,93854.81
2018-08-22T16:24:18.906Z,93854.69
2018-08-22T16:26:46.404Z,93854.31
2018-08-22T16:29:14.270Z,93857.52
2018-08-22T16:31:45.689Z,93852.73
2018-08-22T16:34:13.987Z,93858.18
2018-08-22T16:36:41.550Z,93858.94
2018-08-22T16:39:09.994Z,93859.23
2018-08-22T16:41:37.775Z,93856.03
2018-08-22T16:44:05.403Z,93847.81
2018-08-22T16:46:32.947Z,93857.75
2018-08-22T16:49:00.477Z,93861.05
2018-08-22T16:51:28.062Z,93853.81
2018-08-22T16:54:01.334Z,93856.03
2018-08-22T16:56:30.118Z,93857.66
2018-08-22T16:59:03.394Z,93861.66
2018-08-22T17:01:30.955Z,93853.95
2018-08-22T17:03:58.508Z,93853.63
2018-08-22T17:06:26.223Z,93853.79
2018-08-22T17:08:54.211Z,93857.29
2018-08-22T17:11:21.796Z,93862.61
2018-08-22T17:13:50.575Z,93852.91
2018-08-22T17:16:18.291Z,93863.91
2018-08-22T17:18:45.843Z,93859.61
2018-08-22T17:21:13.403Z,93856.30
2018-08-22T17:23:41.320Z,93861.22
2018-08-22T17:26:13.186Z,93862.99
2018-08-22T17:28:42.206Z,93860.30
2018-08-22T17:31:10.553Z,93862.99
2018-08-22T17:33:49.544Z,93857.70
2018-08-22T17:36:17.086Z,93862.46
2018-08-22T17:38:52.098Z,93859.78
2018-08-22T17:41:20.359Z,93860.36
2018-08-22T17:43:54.283Z,93860.97
2018-08-22T17:46:22.762Z,93858.84
2018-08-22T17:48:50.307Z,93861.12
2018-08-22T17:51:17.864Z,93862.31
2018-08-22T17:53:45.418Z,93861.92
2018-08-22T17:56:12.966Z,93868.30
2018-08-22T17:58:40.863Z,93874.45
2018-08-22T18:01:08.411Z,93871.75
2018-08-22T18:03:35.963Z,93872.47
2018-08-22T18:06:03.539Z,93870.75
2018-08-22T18:08:31.560Z,93869.52
2018-08-22T18:10:59.117Z,93877.19
2018-08-22T18:13:26.668Z,93876.15
2018-08-22T18:15:54.251Z,93881.61
2018-08-22T18:18:21.846Z,93879.44
2018-08-22T18:20:49.990Z,93882.52
2018-08-22T18:23:18.106Z,93880.83
2018-08-22T18:25:55.187Z,93880.76
2018-08-22T18:28:23.364Z,93881.40
2018-08-22T18:30:50.879Z,93889.16
2018-08-22T18:33:18.477Z,93892.16
2018-08-22T18:35:46.448Z,93891.22
2018-08-22T18:38:14.141Z,93897.83
2018-08-22T18:40:42.672Z,93900.45
2018-08-22T18:43:10.217Z,93899.05
2018-08-22T18:45:43.470Z,93903.08
2018-08-22T18:48:11.034Z,93912.01
2018-08-22T18:50:38.614Z,93906.55
2018-08-22T18:53:06.215Z,93909.88
2018-08-22T18:55:34.566Z,93913.20
2018-08-22T18:58:03.606Z,93915.69
2018-08-22T19:00:33.671Z,93921.25
2018-08-22T19:03:01.209Z,93927.80
2018-08-22T19:05:29.952Z,93924.94
2018-08-22T19:07:59.927Z,93925.80
2018-08-22T19:10:30.096Z,93930.00
2018-08-22T19:13:01.289Z,93925.45
2018-08-22T19:15:28.865Z,93928.27
2018-08-22T19:17:56.462Z,93929.25
2018-08-22T19:20:24.039Z,93932.00
2018-08-22T19:22:51.610Z,93924.09
2018-08-22T19:25:19.345Z,93921.98
2018-08-22T19:27:46.882Z,93923.64
2018-08-22T19:30:14.462Z,93925.81
2018-08-22T19:32:42.205Z,93922.59
2018-08-22T19:35:09.771Z,93918.35
2018-08-22T19:37:37.331Z,93924.23
2018-08-22T19:40:06.931Z,93920.50
2018-08-22T19:42:35.623Z,93928.05
2018-08-22T19:45:05.207Z,93935.85
2018-08-22T19:47:32.954Z,93933.45
2018-08-22T19:50:00.958Z,93932.69
2018-08-22T19:52:29.182Z,93935.13
2018-08-22T19:54:56.731Z,93939.66
2018-08-22T19:57:40.243Z,93938.05
2018-08-22T20:00:08.766Z,93941.00
2018-08-22T20:02:37.127Z,93937.80
2018-08-22T20:05:05.267Z,93941.52
2018-08-22T20:07:32.954Z,93939.91
2018-08-22T20:10:00.565Z,93941.77
2018-08-22T20:12:33.811Z,93946.33
2018-08-22T20:15:01.412Z,93941.28
2018-08-22T20:17:29.470Z,93944.48
2018-08-22T20:19:57.132Z,93949.00
2018-08-22T20:22:30.439Z,93943.64
2018-08-22T20:25:00.362Z,93940.16
2018-08-22T20:27:27.915Z,93945.52
2018-08-22T20:30:02.850Z,93942.57
2018-08-22T20:32:30.896Z,93938.56
2018-08-22T20:34:59.703Z,93935.61
2018-08-22T20:37:27.298Z,93941.22
2018-08-22T20:40:00.627Z,93938.30
2018-08-22T20:42:29.708Z,93929.72
2018-08-22T20:45:08.700Z,93927.09
2018-08-22T20:47:36.483Z,93931.91
2018-08-22T20:50:04.025Z,93934.02
2018-08-22T20:52:31.582Z,93932.70
2018-08-22T20:55:04.713Z,93936.98
2018-08-22T20:57:32.301Z,93928.42
2018-08-22T21:00:00.197Z,93936.72
2018-08-22T21:02:28.020Z,93934.56
2018-08-22T21:04:55.609Z,93936.73
2018-08-22T21:07:28.371Z,93941.02
2018-08-22T21:09:55.942Z,93944.22
2018-08-22T21:12:23.576Z,93944.23
2018-08-22T21:14:51.217Z,93945.84
2018-08-22T21:17:18.781Z,93938.85
2018-08-22T21:19:46.495Z,93942.59
2018-08-22T21:22:21.357Z,93944.67
2018-08-22T21:24:48.940Z,93938.84
2018-08-22T21:27:16.570Z,93940.42
2018-08-22T21:29:44.143Z,93945.23
2018-08-22T21:32:11.842Z,93943.05
2018-08-22T21:34:39.388Z,93940.08
2018-08-22T21:37:12.515Z,93937.12
2018-08-22T21:39:40.094Z,93941.95
2018-08-22T21:42:07.670Z,93939.28
2018-08-22T21:44:35.198Z,93936.31
2018-08-22T21:47:08.835Z,93936.55
2018-08-22T21:49:36.379Z,93932.53
2018-08-22T21:52:04.207Z,93936.52
2018-08-22T21:54:31.735Z,93935.47
2018-08-22T21:56:59.258Z,93932.25
2018-08-22T21:59:26.952Z,93934.41
2018-08-22T22:02:00.268Z,93932.67
2018-08-22T22:04:33.845Z,93934.56
2018-08-22T22:07:02.486Z,93930.61
2018-08-22T22:09:30.135Z,93936.13
2018-08-22T22:11:59.426Z,93934.22
2018-08-22T22:14:30.353Z,93927.67
2018-08-22T22:16:58.714Z,93928.65
2018-08-22T22:19:27.606Z,93925.51
2018-08-22T22:21:55.279Z,93926.06
2018-08-22T22:24:22.876Z,93924.89
2018-08-22T22:26:50.402Z,93920.17
2018-08-22T22:29:17.946Z,93920.17
2018-08-22T22:31:45.518Z,93912.20
2018-08-22T22:34:13.097Z,93916.11
2018-08-22T22:36:40.712Z,93911.55
2018-08-22T22:39:45.153Z,93922.70
2018-08-22T22:42:21.230Z,93914.62
2018-08-22T22:44:51.173Z,93917.20
2018-08-22T22:47:24.219Z,93926.78
2018-08-22T22:49:51.799Z,93928.64
2018-08-22T22:52:23.317Z,93929.14
2018-08-22T22:54:52.682Z,93929.87
2018-08-22T22:57:20.237Z,93925.02
2018-08-22T22:59:47.859Z,93925.87
2018-08-22T23:02:15.839Z,93925.06
2018-08-22T23:04:44.814Z,93926.00
2018-08-22T23:07:19.522Z,93928.10
2018-08-22T23:09:48.595Z,93929.99
2018-08-22T23:12:16.321Z,93923.58
2018-08-22T23:14:45.003Z,93924.34
2018-08-22T23:17:12.530Z,93926.28
2018-08-22T23:19:40.098Z,93930.77
2018-08-22T23:22:07.642Z,93937.06
2018-08-22T23:24:35.163Z,93933.59
2018-08-22T23:27:02.708Z,93938.73
2018-08-22T23:29:30.315Z,93931.38
2018-08-22T23:31:57.857Z,93939.94
2018-08-22T23:34:25.487Z,93935.20
2018-08-22T23:36:53.083Z,93937.11
2018-08-22T23:39:22.129Z,93931.59
2018-08-22T23:41:49.658Z,93941.25
2018-08-22T23:44:17.194Z,93937.14
2018-08-22T23:46:44.728Z,93934.50
2018-08-22T23:49:12.303Z,93923.19
2018-08-22T23:51:39.854Z,93923.03
2018-08-22T23:54:07.382Z,93916.17
2018-08-22T23:56:34.944Z,93920.95
2018-08-22T23:59:02.918Z,93929.98
